sensor_id;sensor_type;location;lat;lon;timestamp;P1;durP1;ratioP1;P2;durP2;ratioP2
32469;SDS011;18925;48.356;10.864;2023-01-15T00:00:17;1999.90;;;999.90;;
32469;SDS011;18925;48.356;10.864;2023-01-15T00:00:48;1999.90;;;999.90;;
32469;SDS011;18925;48.356;10.864;2023-01-15T00:01:28;1999.90;;;999.90;;
32469;SDS011;18925;48.356;10.864;2023-01-15T00:02:00;1999.90;;;999.90;;
32469;SDS011;18925;48.356;10.864;2023-01-15T00:02:31;1999.90;;;999.90;;
32469;SDS011;18925;48.356;10.864;2023-01-15T00:03:02;1999.90;;;999.90;;
32469;SDS011;18925;48.356;10.864;2023-01-15T00:03:33;1495.85;;;605.08;;
32469;SDS011;18925;48.356;10.864;2023-01-15T00:04:04;1999.90;;;999.90;;
32469;SDS011;18925;48.356;10.864;2023-01-15T00:04:36;1999.90;;;999.90;;
32469;SDS011;18925;48.356;10.864;2023-01-15T00:05:06;1999.90;;;999.90;;
32469;SDS011;18925;48.356;10.864;2023-01-15T00:05:37;1999.90;;;999.90;;
32469;SDS011;18925;48.356;10.864;2023-01-15T00:06:08;1999.90;;;999.90;;
32469;SDS011;18925;48.356;10.864;2023-01-15T00:06:39;1999.90;;;999.90;;
32469;SDS011;18925;48.356;10.864;2023-01-15T00:07:11;1999.90;;;999.90;;
32469;SDS011;18925;48.356;10.864;2023-01-15T00:07:42;1999.90;;;999.90;;
32469;SDS011;18925;48.356;10.864;2023-01-15T00:08:13;1999.90;;;999.90;;
32469;SDS011;18925;48.356;10.864;2023-01-15T00:08:44;1999.90;;;999.90;;
32469;SDS011;18925;48.356;10.864;2023-01-15T00:09:14;1999.90;;;999.90;;
32469;SDS011;18925;48.356;10.864;2023-01-15T00:09:45;1622.43;;;779.90;;
32469;SDS011;18925;48.356;10.864;2023-01-15T00:10:16;1999.90;;;999.90;;
32469;SDS011;18925;48.356;10.864;2023-01-15T00:10:47;1999.90;;;999.90;;
32469;SDS011;18925;48.356;10.864;2023-01-15T00:11:18;1999.90;;;999.90;;
32469;SDS011;18925;48.356;10.864;2023-01-15T00:11:49;1999.90;;;999.90;;
32469;SDS011;18925;48.356;10.864;2023-01-15T00:12:20;1999.90;;;999.90;;
32469;SDS011;18925;48.356;10.864;2023-01-15T00:12:50;1999.90;;;994.67;;
32469;SDS011;18925;48.356;10.864;2023-01-15T00:13:21;1999.90;;;999.90;;
32469;SDS011;18925;48.356;10.864;2023-01-15T00:13:52;1999.90;;;981.40;;
32469;SDS011;18925;48.356;10.864;2023-01-15T00:14:23;1999.90;;;952.97;;
32469;SDS011;18925;48.356;10.864;2023-01-15T00:14:53;1999.90;;;999.90;;
32469;SDS011;18925;48.356;10.864;2023-01-15T00:15:27;1999.90;;;999.90;;
32469;SDS011;18925;48.356;10.864;2023-01-15T00:16:39;1999.90;;;999.90;;
32469;SDS011;18925;48.356;10.864;2023-01-15T00:17:10;1999.90;;;999.90;;
32469;SDS011;18925;48.356;10.864;2023-01-15T00:17:40;1999.90;;;999.90;;
32469;SDS011;18925;48.356;10.864;2023-01-15T00:18:11;1999.90;;;999.90;;
32469;SDS011;18925;48.356;10.864;2023-01-15T00:18:42;1999.90;;;999.90;;
32469;SDS011;18925;48.356;10.864;2023-01-15T00:19:13;1999.90;;;999.90;;
32469;SDS011;18925;48.356;10.864;2023-01-15T00:19:45;1999.90;;;999.90;;
32469;SDS011;18925;48.356;10.864;2023-01-15T00:20:16;1999.90;;;999.90;;
32469;SDS011;18925;48.356;10.864;2023-01-15T00:20:46;1999.90;;;999.90;;
32469;SDS011;18925;48.356;10.864;2023-01-15T00:21:17;1999.90;;;999.90;;
32469;SDS011;18925;48.356;10.864;2023-01-15T00:21:50;1999.90;;;999.90;;
32469;SDS011;18925;48.356;10.864;2023-01-15T00:22:21;1999.90;;;999.90;;
32469;SDS011;18925;48.356;10.864;2023-01-15T00:22:52;1999.90;;;999.90;;
32469;SDS011;18925;48.356;10.864;2023-01-15T00:23:23;1999.90;;;999.90;;
32469;SDS011;18925;48.356;10.864;2023-01-15T00:24:13;1999.90;;;999.90;;
32469;SDS011;18925;48.356;10.864;2023-01-15T00:25:02;1999.90;;;999.90;;
32469;SDS011;18925;48.356;10.864;2023-01-15T00:25:54;1999.90;;;999.90;;
32469;SDS011;18925;48.356;10.864;2023-01-15T00:26:44;1999.90;;;999.90;;
32469;SDS011;18925;48.356;10.864;2023-01-15T00:27:33;1999.90;;;999.90;;
32469;SDS011;18925;48.356;10.864;2023-01-15T00:28:07;1999.90;;;999.90;;
32469;SDS011;18925;48.356;10.864;2023-01-15T00:28:38;1999.90;;;999.90;;
32469;SDS011;18925;48.356;10.864;2023-01-15T00:29:09;1999.90;;;999.90;;
32469;SDS011;18925;48.356;10.864;2023-01-15T00:29:39;1999.90;;;999.90;;
32469;SDS011;18925;48.356;10.864;2023-01-15T00:30:11;1999.90;;;999.90;;
32469;SDS011;18925;48.356;10.864;2023-01-15T00:30:44;1999.90;;;999.90;;
32469;SDS011;18925;48.356;10.864;2023-01-15T00:31:15;1999.90;;;999.90;;
32469;SDS011;18925;48.356;10.864;2023-01-15T00:31:59;1999.90;;;999.90;;
32469;SDS011;18925;48.356;10.864;2023-01-15T00:32:31;1999.90;;;999.90;;
32469;SDS011;18925;48.356;10.864;2023-01-15T00:33:02;1999.90;;;999.90;;
32469;SDS011;18925;48.356;10.864;2023-01-15T00:33:33;1999.90;;;999.90;;
32469;SDS011;18925;48.356;10.864;2023-01-15T00:34:03;1999.90;;;999.90;;
32469;SDS011;18925;48.356;10.864;2023-01-15T00:34:34;1999.90;;;999.90;;
32469;SDS011;18925;48.356;10.864;2023-01-15T00:35:05;1999.90;;;802.80;;
32469;SDS011;18925;48.356;10.864;2023-01-15T00:35:36;1865.85;;;823.25;;
32469;SDS011;18925;48.356;10.864;2023-01-15T00:36:07;2.08;;;1.88;;
32469;SDS011;18925;48.356;10.864;2023-01-15T00:36:37;163.55;;;136.70;;
32469;SDS011;18925;48.356;10.864;2023-01-15T00:37:09;1999.90;;;962.20;;
32469;SDS011;18925;48.356;10.864;2023-01-15T00:37:39;1468.18;;;913.90;;
32469;SDS011;18925;48.356;10.864;2023-01-15T00:38:10;1999.90;;;999.90;;
32469;SDS011;18925;48.356;10.864;2023-01-15T00:38:41;1915.00;;;999.90;;
32469;SDS011;18925;48.356;10.864;2023-01-15T00:39:11;1217.38;;;881.05;;
32469;SDS011;18925;48.356;10.864;2023-01-15T00:39:42;1999.90;;;874.17;;
32469;SDS011;18925;48.356;10.864;2023-01-15T00:40:14;751.63;;;528.53;;
32469;SDS011;18925;48.356;10.864;2023-01-15T00:40:46;322.20;;;291.92;;
32469;SDS011;18925;48.356;10.864;2023-01-15T00:41:21;209.93;;;160.23;;
32469;SDS011;18925;48.356;10.864;2023-01-15T00:41:52;205.07;;;184.68;;
32469;SDS011;18925;48.356;10.864;2023-01-15T00:42:23;485.55;;;391.58;;
32469;SDS011;18925;48.356;10.864;2023-01-15T00:42:54;88.28;;;78.78;;
32469;SDS011;18925;48.356;10.864;2023-01-15T00:43:25;202.55;;;181.23;;
32469;SDS011;18925;48.356;10.864;2023-01-15T00:43:55;5.50;;;4.90;;
32469;SDS011;18925;48.356;10.864;2023-01-15T00:44:26;79.32;;;71.45;;
32469;SDS011;18925;48.356;10.864;2023-01-15T00:44:57;19.75;;;17.85;;
32469;SDS011;18925;48.356;10.864;2023-01-15T00:45:27;1.05;;;0.77;;
32469;SDS011;18925;48.356;10.864;2023-01-15T00:45:58;1.73;;;0.90;;
32469;SDS011;18925;48.356;10.864;2023-01-15T00:46:29;1.30;;;1.10;;
32469;SDS011;18925;48.356;10.864;2023-01-15T00:46:59;0.80;;;0.65;;
32469;SDS011;18925;48.356;10.864;2023-01-15T00:47:30;1.27;;;0.80;;
32469;SDS011;18925;48.356;10.864;2023-01-15T00:48:01;0.98;;;0.80;;
32469;SDS011;18925;48.356;10.864;2023-01-15T00:48:31;1.05;;;0.82;;
32469;SDS011;18925;48.356;10.864;2023-01-15T00:49:02;0.70;;;0.65;;
32469;SDS011;18925;48.356;10.864;2023-01-15T00:49:34;1.17;;;0.90;;
32469;SDS011;18925;48.356;10.864;2023-01-15T00:50:05;2.97;;;0.80;;
32469;SDS011;18925;48.356;10.864;2023-01-15T00:50:38;0.70;;;0.70;;
32469;SDS011;18925;48.356;10.864;2023-01-15T00:51:08;1.42;;;0.90;;
32469;SDS011;18925;48.356;10.864;2023-01-15T00:51:39;0.80;;;0.80;;
32469;SDS011;18925;48.356;10.864;2023-01-15T00:52:10;0.88;;;0.65;;
32469;SDS011;18925;48.356;10.864;2023-01-15T00:52:41;1.00;;;0.60;;
32469;SDS011;18925;48.356;10.864;2023-01-15T00:53:12;0.93;;;0.80;;
32469;SDS011;18925;48.356;10.864;2023-01-15T00:53:43;1.25;;;0.80;;
32469;SDS011;18925;48.356;10.864;2023-01-15T00:54:13;2.95;;;0.93;;
32469;SDS011;18925;48.356;10.864;2023-01-15T00:54:44;1.00;;;0.70;;
32469;SDS011;18925;48.356;10.864;2023-01-15T00:55:17;0.93;;;0.75;;
32469;SDS011;18925;48.356;10.864;2023-01-15T00:55:48;1.35;;;1.00;;
32469;SDS011;18925;48.356;10.864;2023-01-15T00:56:18;1.08;;;0.80;;
32469;SDS011;18925;48.356;10.864;2023-01-15T00:56:49;1.30;;;0.70;;
32469;SDS011;18925;48.356;10.864;2023-01-15T00:57:19;4.10;;;0.70;;
32469;SDS011;18925;48.356;10.864;2023-01-15T00:57:50;3.35;;;0.80;;
32469;SDS011;18925;48.356;10.864;2023-01-15T00:58:21;1.52;;;0.73;;
32469;SDS011;18925;48.356;10.864;2023-01-15T00:58:52;1.27;;;0.90;;
32469;SDS011;18925;48.356;10.864;2023-01-15T00:59:23;0.95;;;0.70;;
32469;SDS011;18925;48.356;10.864;2023-01-15T00:59:54;1.63;;;0.60;;
32469;SDS011;18925;48.356;10.864;2023-01-15T01:00:24;4.22;;;1.00;;
32469;SDS011;18925;48.356;10.864;2023-01-15T01:00:55;1.27;;;0.90;;
32469;SDS011;18925;48.356;10.864;2023-01-15T01:01:27;1.08;;;0.70;;
32469;SDS011;18925;48.356;10.864;2023-01-15T01:01:57;1.40;;;0.80;;
32469;SDS011;18925;48.356;10.864;2023-01-15T01:02:28;1.75;;;0.80;;
32469;SDS011;18925;48.356;10.864;2023-01-15T01:02:59;1.42;;;0.77;;
32469;SDS011;18925;48.356;10.864;2023-01-15T01:03:29;1.20;;;0.80;;
32469;SDS011;18925;48.356;10.864;2023-01-15T01:04:00;1.98;;;0.80;;
32469;SDS011;18925;48.356;10.864;2023-01-15T01:04:31;1.58;;;0.90;;
32469;SDS011;18925;48.356;10.864;2023-01-15T01:05:01;1.40;;;0.60;;
32469;SDS011;18925;48.356;10.864;2023-01-15T01:05:32;1.13;;;0.73;;
32469;SDS011;18925;48.356;10.864;2023-01-15T01:06:03;0.75;;;0.73;;
32469;SDS011;18925;48.356;10.864;2023-01-15T01:06:34;1.23;;;0.70;;
32469;SDS011;18925;48.356;10.864;2023-01-15T01:07:05;1.40;;;0.80;;
32469;SDS011;18925;48.356;10.864;2023-01-15T01:07:35;2.28;;;0.73;;
32469;SDS011;18925;48.356;10.864;2023-01-15T01:08:06;1.63;;;0.70;;
32469;SDS011;18925;48.356;10.864;2023-01-15T01:08:37;1.25;;;0.80;;
32469;SDS011;18925;48.356;10.864;2023-01-15T01:09:10;1.45;;;0.70;;
32469;SDS011;18925;48.356;10.864;2023-01-15T01:09:43;1.75;;;0.70;;
32469;SDS011;18925;48.356;10.864;2023-01-15T01:10:14;3.95;;;0.75;;
32469;SDS011;18925;48.356;10.864;2023-01-15T01:10:46;0.95;;;0.60;;
32469;SDS011;18925;48.356;10.864;2023-01-15T01:11:18;2.80;;;1.00;;
32469;SDS011;18925;48.356;10.864;2023-01-15T01:11:52;0.70;;;0.70;;
32469;SDS011;18925;48.356;10.864;2023-01-15T01:12:23;1.33;;;0.80;;
32469;SDS011;18925;48.356;10.864;2023-01-15T01:12:55;1.10;;;0.75;;
32469;SDS011;18925;48.356;10.864;2023-01-15T01:13:25;1.10;;;0.60;;
32469;SDS011;18925;48.356;10.864;2023-01-15T01:13:56;4.57;;;0.80;;
32469;SDS011;18925;48.356;10.864;2023-01-15T01:14:27;0.65;;;0.65;;
32469;SDS011;18925;48.356;10.864;2023-01-15T01:14:57;3.22;;;0.70;;
32469;SDS011;18925;48.356;10.864;2023-01-15T01:15:28;0.95;;;0.75;;
32469;SDS011;18925;48.356;10.864;2023-01-15T01:15:59;3.20;;;0.80;;
32469;SDS011;18925;48.356;10.864;2023-01-15T01:16:31;4.57;;;0.73;;
32469;SDS011;18925;48.356;10.864;2023-01-15T01:17:06;2.08;;;0.68;;
32469;SDS011;18925;48.356;10.864;2023-01-15T01:17:37;0.82;;;0.65;;
32469;SDS011;18925;48.356;10.864;2023-01-15T01:18:08;0.88;;;0.88;;
32469;SDS011;18925;48.356;10.864;2023-01-15T01:18:38;1.38;;;1.10;;
32469;SDS011;18925;48.356;10.864;2023-01-15T01:19:10;2.20;;;1.00;;
32469;SDS011;18925;48.356;10.864;2023-01-15T01:19:43;1.13;;;0.73;;
32469;SDS011;18925;48.356;10.864;2023-01-15T01:20:45;2.70;;;1.10;;
32469;SDS011;18925;48.356;10.864;2023-01-15T01:21:16;0.75;;;0.70;;
32469;SDS011;18925;48.356;10.864;2023-01-15T01:21:48;1.02;;;0.80;;
32469;SDS011;18925;48.356;10.864;2023-01-15T01:22:20;1.48;;;0.95;;
32469;SDS011;18925;48.356;10.864;2023-01-15T01:22:50;1.20;;;0.93;;
32469;SDS011;18925;48.356;10.864;2023-01-15T01:23:22;0.60;;;0.60;;
32469;SDS011;18925;48.356;10.864;2023-01-15T01:23:53;1.65;;;0.73;;
32469;SDS011;18925;48.356;10.864;2023-01-15T01:24:26;1.02;;;0.70;;
32469;SDS011;18925;48.356;10.864;2023-01-15T01:24:57;1.65;;;0.80;;
32469;SDS011;18925;48.356;10.864;2023-01-15T01:25:28;1.23;;;0.80;;
32469;SDS011;18925;48.356;10.864;2023-01-15T01:25:58;0.60;;;0.60;;
32469;SDS011;18925;48.356;10.864;2023-01-15T01:26:29;2.60;;;0.82;;
32469;SDS011;18925;48.356;10.864;2023-01-15T01:27:00;0.95;;;0.60;;
32469;SDS011;18925;48.356;10.864;2023-01-15T01:27:31;0.70;;;0.70;;
32469;SDS011;18925;48.356;10.864;2023-01-15T01:28:01;0.82;;;0.70;;
32469;SDS011;18925;48.356;10.864;2023-01-15T01:28:32;0.68;;;0.68;;
32469;SDS011;18925;48.356;10.864;2023-01-15T01:29:03;1.00;;;0.93;;
32469;SDS011;18925;48.356;10.864;2023-01-15T01:29:33;1.25;;;0.77;;
32469;SDS011;18925;48.356;10.864;2023-01-15T01:30:04;1.77;;;0.70;;
32469;SDS011;18925;48.356;10.864;2023-01-15T01:30:38;1.73;;;0.70;;
32469;SDS011;18925;48.356;10.864;2023-01-15T01:31:09;5.88;;;0.70;;
32469;SDS011;18925;48.356;10.864;2023-01-15T01:31:40;2.13;;;0.77;;
32469;SDS011;18925;48.356;10.864;2023-01-15T01:32:10;2.15;;;0.70;;
32469;SDS011;18925;48.356;10.864;2023-01-15T01:32:42;1.77;;;0.70;;
32469;SDS011;18925;48.356;10.864;2023-01-15T01:33:14;0.70;;;0.70;;
32469;SDS011;18925;48.356;10.864;2023-01-15T01:33:46;0.70;;;0.63;;
32469;SDS011;18925;48.356;10.864;2023-01-15T01:34:21;4.18;;;0.90;;
32469;SDS011;18925;48.356;10.864;2023-01-15T01:34:51;0.90;;;0.80;;
32469;SDS011;18925;48.356;10.864;2023-01-15T01:35:22;2.17;;;0.60;;
32469;SDS011;18925;48.356;10.864;2023-01-15T01:35:52;4.45;;;0.90;;
32469;SDS011;18925;48.356;10.864;2023-01-15T01:36:27;2.05;;;0.80;;
32469;SDS011;18925;48.356;10.864;2023-01-15T01:36:59;0.60;;;0.60;;
32469;SDS011;18925;48.356;10.864;2023-01-15T01:37:30;0.95;;;0.70;;
32469;SDS011;18925;48.356;10.864;2023-01-15T01:38:00;0.60;;;0.60;;
32469;SDS011;18925;48.356;10.864;2023-01-15T01:38:31;2.50;;;0.70;;
32469;SDS011;18925;48.356;10.864;2023-01-15T01:39:03;0.70;;;0.70;;
32469;SDS011;18925;48.356;10.864;2023-01-15T01:39:35;1.63;;;0.70;;
32469;SDS011;18925;48.356;10.864;2023-01-15T01:40:06;1.15;;;0.77;;
32469;SDS011;18925;48.356;10.864;2023-01-15T01:40:37;0.90;;;0.70;;
32469;SDS011;18925;48.356;10.864;2023-01-15T01:41:10;0.93;;;0.80;;
32469;SDS011;18925;48.356;10.864;2023-01-15T01:41:41;1.50;;;0.90;;
32469;SDS011;18925;48.356;10.864;2023-01-15T01:42:12;0.88;;;0.80;;
32469;SDS011;18925;48.356;10.864;2023-01-15T01:42:44;1.00;;;0.80;;
32469;SDS011;18925;48.356;10.864;2023-01-15T01:43:19;1.35;;;0.80;;
32469;SDS011;18925;48.356;10.864;2023-01-15T01:44:05;0.93;;;0.65;;
32469;SDS011;18925;48.356;10.864;2023-01-15T01:45:30;0.85;;;0.70;;
32469;SDS011;18925;48.356;10.864;2023-01-15T01:46:02;1.40;;;0.80;;
32469;SDS011;18925;48.356;10.864;2023-01-15T01:46:33;1.88;;;0.60;;
32469;SDS011;18925;48.356;10.864;2023-01-15T01:47:06;2.47;;;0.70;;
32469;SDS011;18925;48.356;10.864;2023-01-15T01:47:39;0.82;;;0.60;;
32469;SDS011;18925;48.356;10.864;2023-01-15T01:48:10;1.50;;;0.70;;
32469;SDS011;18925;48.356;10.864;2023-01-15T01:48:41;2.35;;;0.77;;
32469;SDS011;18925;48.356;10.864;2023-01-15T01:49:12;2.13;;;0.80;;
32469;SDS011;18925;48.356;10.864;2023-01-15T01:49:43;2.05;;;0.70;;
32469;SDS011;18925;48.356;10.864;2023-01-15T01:50:16;2.47;;;0.70;;
32469;SDS011;18925;48.356;10.864;2023-01-15T01:50:47;0.95;;;0.60;;
32469;SDS011;18925;48.356;10.864;2023-01-15T01:51:19;1.10;;;0.80;;
32469;SDS011;18925;48.356;10.864;2023-01-15T01:51:55;0.82;;;0.77;;
32469;SDS011;18925;48.356;10.864;2023-01-15T01:53:31;2.00;;;0.70;;
32469;SDS011;18925;48.356;10.864;2023-01-15T01:53:36;1.42;;;0.80;;
32469;SDS011;18925;48.356;10.864;2023-01-15T01:54:07;1.13;;;0.73;;
32469;SDS011;18925;48.356;10.864;2023-01-15T01:54:40;0.82;;;0.70;;
32469;SDS011;18925;48.356;10.864;2023-01-15T01:55:15;2.70;;;0.82;;
32469;SDS011;18925;48.356;10.864;2023-01-15T01:55:48;1.60;;;0.70;;
32469;SDS011;18925;48.356;10.864;2023-01-15T01:56:19;1.23;;;0.77;;
32469;SDS011;18925;48.356;10.864;2023-01-15T01:56:52;0.80;;;0.70;;
32469;SDS011;18925;48.356;10.864;2023-01-15T01:57:23;1.52;;;0.60;;
32469;SDS011;18925;48.356;10.864;2023-01-15T01:57:55;1.38;;;0.75;;
32469;SDS011;18925;48.356;10.864;2023-01-15T01:58:29;3.42;;;0.77;;
32469;SDS011;18925;48.356;10.864;2023-01-15T01:59:02;0.70;;;0.57;;
32469;SDS011;18925;48.356;10.864;2023-01-15T01:59:35;1.75;;;0.90;;
32469;SDS011;18925;48.356;10.864;2023-01-15T02:00:07;2.25;;;0.75;;
32469;SDS011;18925;48.356;10.864;2023-01-15T02:00:40;1.58;;;0.70;;
32469;SDS011;18925;48.356;10.864;2023-01-15T02:01:15;0.70;;;0.70;;
32469;SDS011;18925;48.356;10.864;2023-01-15T02:01:47;2.50;;;0.88;;
32469;SDS011;18925;48.356;10.864;2023-01-15T02:02:19;1.08;;;0.82;;
32469;SDS011;18925;48.356;10.864;2023-01-15T02:02:51;0.98;;;0.70;;
32469;SDS011;18925;48.356;10.864;2023-01-15T02:03:24;1.15;;;0.80;;
32469;SDS011;18925;48.356;10.864;2023-01-15T02:04:00;0.90;;;0.80;;
32469;SDS011;18925;48.356;10.864;2023-01-15T02:04:35;2.72;;;0.73;;
32469;SDS011;18925;48.356;10.864;2023-01-15T02:05:07;3.45;;;0.90;;
32469;SDS011;18925;48.356;10.864;2023-01-15T02:05:39;1.67;;;0.70;;
32469;SDS011;18925;48.356;10.864;2023-01-15T02:06:16;1.95;;;0.98;;
32469;SDS011;18925;48.356;10.864;2023-01-15T02:06:47;2.40;;;1.00;;
32469;SDS011;18925;48.356;10.864;2023-01-15T02:07:18;1.35;;;0.85;;
32469;SDS011;18925;48.356;10.864;2023-01-15T02:07:48;0.77;;;0.65;;
32469;SDS011;18925;48.356;10.864;2023-01-15T02:08:19;2.72;;;0.70;;
32469;SDS011;18925;48.356;10.864;2023-01-15T02:08:51;1.08;;;0.77;;
32469;SDS011;18925;48.356;10.864;2023-01-15T02:09:22;1.17;;;1.00;;
32469;SDS011;18925;48.356;10.864;2023-01-15T02:09:52;1.73;;;1.00;;
32469;SDS011;18925;48.356;10.864;2023-01-15T02:10:23;1.58;;;0.90;;
32469;SDS011;18925;48.356;10.864;2023-01-15T02:10:54;1.95;;;0.90;;
32469;SDS011;18925;48.356;10.864;2023-01-15T02:11:25;2.72;;;1.10;;
32469;SDS011;18925;48.356;10.864;2023-01-15T02:12:21;1.63;;;0.80;;
32469;SDS011;18925;48.356;10.864;2023-01-15T02:12:55;1.88;;;0.75;;
32469;SDS011;18925;48.356;10.864;2023-01-15T02:13:36;1.70;;;0.90;;
32469;SDS011;18925;48.356;10.864;2023-01-15T02:14:54;3.70;;;0.90;;
32469;SDS011;18925;48.356;10.864;2023-01-15T02:15:46;1.35;;;0.80;;
32469;SDS011;18925;48.356;10.864;2023-01-15T02:16:57;1.58;;;0.70;;
32469;SDS011;18925;48.356;10.864;2023-01-15T02:17:43;0.60;;;0.60;;
32469;SDS011;18925;48.356;10.864;2023-01-15T02:18:30;1.95;;;0.80;;
32469;SDS011;18925;48.356;10.864;2023-01-15T02:20:15;1.30;;;0.88;;
32469;SDS011;18925;48.356;10.864;2023-01-15T02:21:42;0.95;;;0.80;;
32469;SDS011;18925;48.356;10.864;2023-01-15T02:23:59;1.98;;;0.90;;
32469;SDS011;18925;48.356;10.864;2023-01-15T02:24:49;1.40;;;0.70;;
32469;SDS011;18925;48.356;10.864;2023-01-15T02:27:08;1.38;;;0.80;;
32469;SDS011;18925;48.356;10.864;2023-01-15T02:27:43;1.30;;;0.80;;
32469;SDS011;18925;48.356;10.864;2023-01-15T02:28:24;1.80;;;1.05;;
32469;SDS011;18925;48.356;10.864;2023-01-15T02:28:58;2.92;;;0.90;;
32469;SDS011;18925;48.356;10.864;2023-01-15T02:30:16;1.42;;;0.80;;
32469;SDS011;18925;48.356;10.864;2023-01-15T02:30:53;1.23;;;0.73;;
32469;SDS011;18925;48.356;10.864;2023-01-15T02:31:33;1.60;;;0.80;;
32469;SDS011;18925;48.356;10.864;2023-01-15T02:32:09;2.47;;;1.08;;
32469;SDS011;18925;48.356;10.864;2023-01-15T02:33:04;0.95;;;0.73;;
32469;SDS011;18925;48.356;10.864;2023-01-15T02:33:40;0.98;;;0.60;;
32469;SDS011;18925;48.356;10.864;2023-01-15T02:34:25;0.90;;;0.70;;
32469;SDS011;18925;48.356;10.864;2023-01-15T02:35:01;2.85;;;0.70;;
32469;SDS011;18925;48.356;10.864;2023-01-15T02:35:41;0.98;;;0.80;;
32469;SDS011;18925;48.356;10.864;2023-01-15T02:36:52;2.28;;;0.90;;
32469;SDS011;18925;48.356;10.864;2023-01-15T02:37:31;0.50;;;0.50;;
32469;SDS011;18925;48.356;10.864;2023-01-15T02:38:07;1.45;;;0.80;;
32469;SDS011;18925;48.356;10.864;2023-01-15T02:38:42;2.60;;;1.00;;
32469;SDS011;18925;48.356;10.864;2023-01-15T02:39:16;2.90;;;1.00;;
32469;SDS011;18925;48.356;10.864;2023-01-15T02:39:49;1.85;;;0.90;;
32469;SDS011;18925;48.356;10.864;2023-01-15T02:40:22;1.10;;;0.68;;
32469;SDS011;18925;48.356;10.864;2023-01-15T02:40:55;2.72;;;1.17;;
32469;SDS011;18925;48.356;10.864;2023-01-15T02:41:30;128.35;;;118.72;;
32469;SDS011;18925;48.356;10.864;2023-01-15T02:42:04;1205.95;;;820.30;;
32469;SDS011;18925;48.356;10.864;2023-01-15T02:42:38;283.33;;;211.55;;
32469;SDS011;18925;48.356;10.864;2023-01-15T02:43:12;1.00;;;0.90;;
32469;SDS011;18925;48.356;10.864;2023-01-15T02:43:45;32.05;;;29.33;;
32469;SDS011;18925;48.356;10.864;2023-01-15T02:44:19;1.52;;;0.70;;
32469;SDS011;18925;48.356;10.864;2023-01-15T02:44:53;1.58;;;1.05;;
32469;SDS011;18925;48.356;10.864;2023-01-15T02:45:29;1.65;;;1.55;;
32469;SDS011;18925;48.356;10.864;2023-01-15T02:46:02;278.20;;;253.80;;
32469;SDS011;18925;48.356;10.864;2023-01-15T02:46:35;1435.45;;;696.10;;
32469;SDS011;18925;48.356;10.864;2023-01-15T02:47:08;9.07;;;7.82;;
32469;SDS011;18925;48.356;10.864;2023-01-15T02:47:40;55.78;;;35.35;;
32469;SDS011;18925;48.356;10.864;2023-01-15T02:48:14;13.38;;;9.48;;
32469;SDS011;18925;48.356;10.864;2023-01-15T02:48:49;570.83;;;508.77;;
32469;SDS011;18925;48.356;10.864;2023-01-15T02:49:23;1999.53;;;999.90;;
32469;SDS011;18925;48.356;10.864;2023-01-15T02:49:54;1999.90;;;999.90;;
32469;SDS011;18925;48.356;10.864;2023-01-15T02:50:30;1999.90;;;999.90;;
32469;SDS011;18925;48.356;10.864;2023-01-15T02:51:06;1999.90;;;999.90;;
32469;SDS011;18925;48.356;10.864;2023-01-15T02:51:43;1999.90;;;999.90;;
32469;SDS011;18925;48.356;10.864;2023-01-15T02:52:21;1999.90;;;999.90;;
32469;SDS011;18925;48.356;10.864;2023-01-15T02:52:57;1999.90;;;999.90;;
32469;SDS011;18925;48.356;10.864;2023-01-15T02:53:33;1999.90;;;999.90;;
32469;SDS011;18925;48.356;10.864;2023-01-15T02:54:08;1999.90;;;999.90;;
32469;SDS011;18925;48.356;10.864;2023-01-15T02:54:44;1999.90;;;999.90;;
32469;SDS011;18925;48.356;10.864;2023-01-15T02:55:23;1999.90;;;999.90;;
32469;SDS011;18925;48.356;10.864;2023-01-15T02:55:58;1999.90;;;999.90;;
32469;SDS011;18925;48.356;10.864;2023-01-15T02:56:32;1999.90;;;999.90;;
32469;SDS011;18925;48.356;10.864;2023-01-15T02:57:07;1999.90;;;999.90;;
32469;SDS011;18925;48.356;10.864;2023-01-15T02:57:40;1999.90;;;999.90;;
32469;SDS011;18925;48.356;10.864;2023-01-15T02:58:15;1999.90;;;999.90;;
32469;SDS011;18925;48.356;10.864;2023-01-15T02:58:50;1999.90;;;999.90;;
32469;SDS011;18925;48.356;10.864;2023-01-15T02:59:26;1999.90;;;999.90;;
32469;SDS011;18925;48.356;10.864;2023-01-15T03:00:04;1999.90;;;999.90;;
32469;SDS011;18925;48.356;10.864;2023-01-15T03:00:39;1999.90;;;999.90;;
32469;SDS011;18925;48.356;10.864;2023-01-15T03:01:17;1999.90;;;999.90;;
32469;SDS011;18925;48.356;10.864;2023-01-15T03:01:52;1999.90;;;999.90;;
32469;SDS011;18925;48.356;10.864;2023-01-15T03:02:30;1999.90;;;999.90;;
32469;SDS011;18925;48.356;10.864;2023-01-15T03:03:46;1999.90;;;999.90;;
32469;SDS011;18925;48.356;10.864;2023-01-15T03:05:53;1999.90;;;999.90;;
32469;SDS011;18925;48.356;10.864;2023-01-15T03:06:42;1999.90;;;999.90;;
32469;SDS011;18925;48.356;10.864;2023-01-15T03:07:20;1999.90;;;999.90;;
32469;SDS011;18925;48.356;10.864;2023-01-15T03:07:59;1999.90;;;999.90;;
32469;SDS011;18925;48.356;10.864;2023-01-15T03:08:32;1999.90;;;999.90;;
32469;SDS011;18925;48.356;10.864;2023-01-15T03:09:03;1999.90;;;999.90;;
32469;SDS011;18925;48.356;10.864;2023-01-15T03:09:35;1999.90;;;999.90;;
32469;SDS011;18925;48.356;10.864;2023-01-15T03:10:06;1999.90;;;999.90;;
32469;SDS011;18925;48.356;10.864;2023-01-15T03:10:47;1999.90;;;999.90;;
32469;SDS011;18925;48.356;10.864;2023-01-15T03:11:25;1999.90;;;999.90;;
32469;SDS011;18925;48.356;10.864;2023-01-15T03:12:07;1999.90;;;999.90;;
32469;SDS011;18925;48.356;10.864;2023-01-15T03:12:46;1999.90;;;999.90;;
32469;SDS011;18925;48.356;10.864;2023-01-15T03:15:21;1999.90;;;999.90;;
32469;SDS011;18925;48.356;10.864;2023-01-15T03:16:17;1999.90;;;999.90;;
32469;SDS011;18925;48.356;10.864;2023-01-15T03:17:18;1999.90;;;999.90;;
32469;SDS011;18925;48.356;10.864;2023-01-15T03:17:56;1999.90;;;999.90;;
32469;SDS011;18925;48.356;10.864;2023-01-15T03:18:27;1999.90;;;999.90;;
32469;SDS011;18925;48.356;10.864;2023-01-15T03:20:05;1999.90;;;999.90;;
32469;SDS011;18925;48.356;10.864;2023-01-15T03:20:47;1999.90;;;999.90;;
32469;SDS011;18925;48.356;10.864;2023-01-15T03:22:06;1999.90;;;999.90;;
32469;SDS011;18925;48.356;10.864;2023-01-15T03:22:28;1999.90;;;999.90;;
32469;SDS011;18925;48.356;10.864;2023-01-15T03:23:06;1999.90;;;999.90;;
32469;SDS011;18925;48.356;10.864;2023-01-15T03:23:41;1999.90;;;999.90;;
32469;SDS011;18925;48.356;10.864;2023-01-15T03:24:18;1999.90;;;999.90;;
32469;SDS011;18925;48.356;10.864;2023-01-15T03:25:08;1999.90;;;999.90;;
32469;SDS011;18925;48.356;10.864;2023-01-15T03:25:49;1999.90;;;999.90;;
32469;SDS011;18925;48.356;10.864;2023-01-15T03:26:20;1999.90;;;999.90;;
32469;SDS011;18925;48.356;10.864;2023-01-15T03:26:52;1999.90;;;999.90;;
32469;SDS011;18925;48.356;10.864;2023-01-15T03:27:23;1999.90;;;999.90;;
32469;SDS011;18925;48.356;10.864;2023-01-15T03:27:55;1999.90;;;999.90;;
32469;SDS011;18925;48.356;10.864;2023-01-15T03:28:30;1999.90;;;999.90;;
32469;SDS011;18925;48.356;10.864;2023-01-15T03:29:06;1999.90;;;999.90;;
32469;SDS011;18925;48.356;10.864;2023-01-15T03:29:40;1999.90;;;999.90;;